sensor_id;sensor_type;location;lat;lon;timestamp;P1;durP1;ratioP1;P2;durP2;ratioP2
25107;SDS011;13090;53.422;7.670;2023-02-08T00:00:59;25.48;;;16.13;;
25107;SDS011;13090;53.422;7.670;2023-02-08T00:06:11;31.23;;;17.25;;
25107;SDS011;13090;53.422;7.670;2023-02-08T00:11:15;29.05;;;17.40;;
25107;SDS011;13090;53.422;7.670;2023-02-08T00:16:30;32.08;;;17.80;;
25107;SDS011;13090;53.422;7.670;2023-02-08T00:21:36;30.33;;;18.40;;
25107;SDS011;13090;53.422;7.670;2023-02-08T00:26:39;31.52;;;18.10;;
25107;SDS011;13090;53.422;7.670;2023-02-08T00:31:43;25.65;;;15.55;;
25107;SDS011;13090;53.422;7.670;2023-02-08T00:36:46;28.45;;;15.70;;
25107;SDS011;13090;53.422;7.670;2023-02-08T00:41:49;25.63;;;15.73;;
25107;SDS011;13090;53.422;7.670;2023-02-08T00:46:53;31.48;;;17.70;;
25107;SDS011;13090;53.422;7.670;2023-02-08T00:52:01;28.90;;;16.77;;
25107;SDS011;13090;53.422;7.670;2023-02-08T00:57:04;28.02;;;17.25;;
25107;SDS011;13090;53.422;7.670;2023-02-08T01:02:13;28.63;;;16.95;;
25107;SDS011;13090;53.422;7.670;2023-02-08T01:07:19;27.70;;;16.88;;
25107;SDS011;13090;53.422;7.670;2023-02-08T01:12:22;28.85;;;16.73;;
25107;SDS011;13090;53.422;7.670;2023-02-08T01:17:28;28.45;;;16.10;;
25107;SDS011;13090;53.422;7.670;2023-02-08T01:22:30;25.15;;;15.95;;
25107;SDS011;13090;53.422;7.670;2023-02-08T01:27:33;26.58;;;16.30;;
25107;SDS011;13090;53.422;7.670;2023-02-08T01:32:37;28.38;;;16.40;;
25107;SDS011;13090;53.422;7.670;2023-02-08T01:37:40;25.90;;;15.07;;
25107;SDS011;13090;53.422;7.670;2023-02-08T01:42:42;26.70;;;15.77;;
25107;SDS011;13090;53.422;7.670;2023-02-08T01:47:48;27.33;;;15.35;;
25107;SDS011;13090;53.422;7.670;2023-02-08T01:52:53;26.58;;;15.90;;
25107;SDS011;13090;53.422;7.670;2023-02-08T01:57:58;23.73;;;14.60;;
25107;SDS011;13090;53.422;7.670;2023-02-08T02:03:05;26.55;;;15.60;;
25107;SDS011;13090;53.422;7.670;2023-02-08T02:08:09;25.70;;;16.05;;
25107;SDS011;13090;53.422;7.670;2023-02-08T02:13:13;26.55;;;16.08;;
25107;SDS011;13090;53.422;7.670;2023-02-08T02:18:21;25.15;;;15.20;;
25107;SDS011;13090;53.422;7.670;2023-02-08T02:29:20;26.73;;;16.27;;
25107;SDS011;13090;53.422;7.670;2023-02-08T02:34:47;26.45;;;16.42;;
25107;SDS011;13090;53.422;7.670;2023-02-08T02:39:57;28.75;;;17.27;;
25107;SDS011;13090;53.422;7.670;2023-02-08T02:45:08;27.27;;;16.48;;
25107;SDS011;13090;53.422;7.670;2023-02-08T02:50:26;30.00;;;17.87;;
25107;SDS011;13090;53.422;7.670;2023-02-08T02:55:34;28.50;;;16.83;;
25107;SDS011;13090;53.422;7.670;2023-02-08T03:00:41;30.92;;;16.60;;
25107;SDS011;13090;53.422;7.670;2023-02-08T03:05:45;26.40;;;15.70;;
25107;SDS011;13090;53.422;7.670;2023-02-08T03:10:51;27.40;;;16.40;;
25107;SDS011;13090;53.422;7.670;2023-02-08T03:16:05;30.15;;;17.08;;
25107;SDS011;13090;53.422;7.670;2023-02-08T03:21:19;31.20;;;17.20;;
25107;SDS011;13090;53.422;7.670;2023-02-08T03:26:30;29.98;;;16.83;;
25107;SDS011;13090;53.422;7.670;2023-02-08T03:31:38;34.03;;;17.70;;
25107;SDS011;13090;53.422;7.670;2023-02-08T03:36:48;29.00;;;17.48;;
25107;SDS011;13090;53.422;7.670;2023-02-08T03:41:54;28.90;;;16.92;;
25107;SDS011;13090;53.422;7.670;2023-02-08T03:52:22;34.20;;;17.90;;
25107;SDS011;13090;53.422;7.670;2023-02-08T03:57:26;25.65;;;16.10;;
25107;SDS011;13090;53.422;7.670;2023-02-08T04:02:32;26.95;;;15.68;;
25107;SDS011;13090;53.422;7.670;2023-02-08T04:07:41;27.83;;;16.92;;
25107;SDS011;13090;53.422;7.670;2023-02-08T04:12:43;26.33;;;16.10;;
25107;SDS011;13090;53.422;7.670;2023-02-08T04:17:48;32.92;;;18.90;;
25107;SDS011;13090;53.422;7.670;2023-02-08T04:22:52;29.25;;;15.82;;
25107;SDS011;13090;53.422;7.670;2023-02-08T04:27:55;28.20;;;16.45;;
25107;SDS011;13090;53.422;7.670;2023-02-08T04:32:57;29.50;;;17.42;;
25107;SDS011;13090;53.422;7.670;2023-02-08T04:38:01;32.42;;;18.65;;
25107;SDS011;13090;53.422;7.670;2023-02-08T04:43:04;31.65;;;18.65;;
25107;SDS011;13090;53.422;7.670;2023-02-08T04:48:21;33.97;;;18.73;;
25107;SDS011;13090;53.422;7.670;2023-02-08T04:53:52;34.63;;;18.55;;
25107;SDS011;13090;53.422;7.670;2023-02-08T04:59:05;34.10;;;20.40;;
25107;SDS011;13090;53.422;7.670;2023-02-08T05:04:11;34.22;;;19.48;;
25107;SDS011;13090;53.422;7.670;2023-02-08T05:09:22;35.17;;;19.52;;
25107;SDS011;13090;53.422;7.670;2023-02-08T05:14:33;34.42;;;18.02;;
25107;SDS011;13090;53.422;7.670;2023-02-08T05:19:42;31.65;;;18.35;;
25107;SDS011;13090;53.422;7.670;2023-02-08T05:24:46;32.53;;;19.23;;
25107;SDS011;13090;53.422;7.670;2023-02-08T05:29:48;32.45;;;18.05;;
25107;SDS011;13090;53.422;7.670;2023-02-08T05:34:51;34.05;;;18.58;;
25107;SDS011;13090;53.422;7.670;2023-02-08T05:39:54;31.48;;;18.25;;
25107;SDS011;13090;53.422;7.670;2023-02-08T05:44:56;29.48;;;17.13;;
25107;SDS011;13090;53.422;7.670;2023-02-08T05:49:58;30.90;;;18.65;;
25107;SDS011;13090;53.422;7.670;2023-02-08T05:55:02;31.38;;;18.17;;
25107;SDS011;13090;53.422;7.670;2023-02-08T06:00:05;30.65;;;18.15;;
25107;SDS011;13090;53.422;7.670;2023-02-08T06:05:08;33.13;;;17.80;;
25107;SDS011;13090;53.422;7.670;2023-02-08T06:10:11;32.45;;;18.65;;
25107;SDS011;13090;53.422;7.670;2023-02-08T06:15:14;31.05;;;18.13;;
25107;SDS011;13090;53.422;7.670;2023-02-08T06:20:16;32.03;;;18.30;;
25107;SDS011;13090;53.422;7.670;2023-02-08T06:25:20;35.88;;;19.00;;
25107;SDS011;13090;53.422;7.670;2023-02-08T06:30:22;30.50;;;18.45;;
25107;SDS011;13090;53.422;7.670;2023-02-08T06:35:25;36.25;;;20.63;;
25107;SDS011;13090;53.422;7.670;2023-02-08T06:40:28;43.15;;;23.77;;
25107;SDS011;13090;53.422;7.670;2023-02-08T06:45:30;32.67;;;18.50;;
25107;SDS011;13090;53.422;7.670;2023-02-08T06:50:33;33.75;;;19.48;;
25107;SDS011;13090;53.422;7.670;2023-02-08T06:55:37;31.50;;;18.65;;
25107;SDS011;13090;53.422;7.670;2023-02-08T07:00:39;39.05;;;19.38;;
25107;SDS011;13090;53.422;7.670;2023-02-08T07:05:42;32.47;;;17.02;;
25107;SDS011;13090;53.422;7.670;2023-02-08T07:11:09;36.45;;;19.50;;
25107;SDS011;13090;53.422;7.670;2023-02-08T07:16:13;33.67;;;19.77;;
25107;SDS011;13090;53.422;7.670;2023-02-08T07:21:16;35.95;;;21.02;;
25107;SDS011;13090;53.422;7.670;2023-02-08T07:26:19;35.80;;;21.45;;
25107;SDS011;13090;53.422;7.670;2023-02-08T07:31:22;37.30;;;20.63;;
25107;SDS011;13090;53.422;7.670;2023-02-08T07:36:24;38.10;;;20.75;;
25107;SDS011;13090;53.422;7.670;2023-02-08T07:41:27;33.80;;;20.33;;
25107;SDS011;13090;53.422;7.670;2023-02-08T07:46:30;33.85;;;20.05;;
25107;SDS011;13090;53.422;7.670;2023-02-08T07:51:32;33.80;;;18.65;;
25107;SDS011;13090;53.422;7.670;2023-02-08T07:56:35;29.48;;;18.58;;
25107;SDS011;13090;53.422;7.670;2023-02-08T08:01:38;29.45;;;17.27;;
25107;SDS011;13090;53.422;7.670;2023-02-08T08:06:40;28.90;;;17.13;;
25107;SDS011;13090;53.422;7.670;2023-02-08T08:11:43;32.03;;;18.38;;
25107;SDS011;13090;53.422;7.670;2023-02-08T08:16:46;29.77;;;19.05;;
25107;SDS011;13090;53.422;7.670;2023-02-08T08:21:48;31.85;;;19.83;;
25107;SDS011;13090;53.422;7.670;2023-02-08T08:26:52;34.22;;;20.58;;
25107;SDS011;13090;53.422;7.670;2023-02-08T08:31:54;28.55;;;17.98;;
25107;SDS011;13090;53.422;7.670;2023-02-08T08:36:56;28.60;;;18.60;;
25107;SDS011;13090;53.422;7.670;2023-02-08T08:42:00;27.17;;;17.25;;
25107;SDS011;13090;53.422;7.670;2023-02-08T08:47:03;24.85;;;17.08;;
25107;SDS011;13090;53.422;7.670;2023-02-08T08:52:05;25.10;;;16.60;;
25107;SDS011;13090;53.422;7.670;2023-02-08T08:57:09;25.23;;;16.48;;
25107;SDS011;13090;53.422;7.670;2023-02-08T09:02:12;25.30;;;16.08;;
25107;SDS011;13090;53.422;7.670;2023-02-08T09:07:15;23.50;;;15.35;;
25107;SDS011;13090;53.422;7.670;2023-02-08T09:12:18;25.85;;;17.55;;
25107;SDS011;13090;53.422;7.670;2023-02-08T09:17:21;23.63;;;16.65;;
25107;SDS011;13090;53.422;7.670;2023-02-08T09:22:23;26.00;;;17.05;;
25107;SDS011;13090;53.422;7.670;2023-02-08T09:27:26;28.27;;;17.85;;
25107;SDS011;13090;53.422;7.670;2023-02-08T09:32:30;25.02;;;15.38;;
25107;SDS011;13090;53.422;7.670;2023-02-08T09:37:32;24.13;;;15.70;;
25107;SDS011;13090;53.422;7.670;2023-02-08T09:42:39;22.38;;;13.23;;
25107;SDS011;13090;53.422;7.670;2023-02-08T09:47:46;23.17;;;14.90;;
25107;SDS011;13090;53.422;7.670;2023-02-08T09:52:57;25.20;;;15.32;;
25107;SDS011;13090;53.422;7.670;2023-02-08T09:58:07;20.15;;;13.65;;
25107;SDS011;13090;53.422;7.670;2023-02-08T10:03:26;23.67;;;15.60;;
25107;SDS011;13090;53.422;7.670;2023-02-08T10:08:34;20.00;;;14.02;;
25107;SDS011;13090;53.422;7.670;2023-02-08T10:13:42;19.98;;;14.40;;
25107;SDS011;13090;53.422;7.670;2023-02-08T10:18:54;17.73;;;11.95;;
25107;SDS011;13090;53.422;7.670;2023-02-08T10:24:11;19.65;;;12.48;;
25107;SDS011;13090;53.422;7.670;2023-02-08T10:29:32;18.90;;;12.68;;
25107;SDS011;13090;53.422;7.670;2023-02-08T10:34:50;16.08;;;11.32;;
25107;SDS011;13090;53.422;7.670;2023-02-08T10:39:55;16.02;;;10.77;;
25107;SDS011;13090;53.422;7.670;2023-02-08T10:45:03;16.73;;;11.35;;
25107;SDS011;13090;53.422;7.670;2023-02-08T10:50:28;15.90;;;10.93;;
25107;SDS011;13090;53.422;7.670;2023-02-08T10:55:35;17.45;;;12.95;;
25107;SDS011;13090;53.422;7.670;2023-02-08T11:00:41;16.20;;;10.40;;
25107;SDS011;13090;53.422;7.670;2023-02-08T11:05:45;19.10;;;14.02;;
25107;SDS011;13090;53.422;7.670;2023-02-08T11:10:55;16.40;;;10.57;;
25107;SDS011;13090;53.422;7.670;2023-02-08T11:16:01;16.02;;;10.20;;
25107;SDS011;13090;53.422;7.670;2023-02-08T11:21:07;16.15;;;10.65;;
25107;SDS011;13090;53.422;7.670;2023-02-08T11:26:21;16.85;;;10.45;;
25107;SDS011;13090;53.422;7.670;2023-02-08T11:31:33;18.17;;;10.73;;
25107;SDS011;13090;53.422;7.670;2023-02-08T11:36:36;15.35;;;9.98;;
25107;SDS011;13090;53.422;7.670;2023-02-08T11:41:46;15.10;;;9.95;;
25107;SDS011;13090;53.422;7.670;2023-02-08T11:46:52;14.20;;;9.70;;
25107;SDS011;13090;53.422;7.670;2023-02-08T11:51:57;13.73;;;9.02;;
25107;SDS011;13090;53.422;7.670;2023-02-08T11:57:01;11.38;;;8.13;;
25107;SDS011;13090;53.422;7.670;2023-02-08T12:02:26;13.50;;;8.95;;
25107;SDS011;13090;53.422;7.670;2023-02-08T12:07:39;19.48;;;14.23;;
25107;SDS011;13090;53.422;7.670;2023-02-08T12:13:04;12.43;;;8.93;;
25107;SDS011;13090;53.422;7.670;2023-02-08T12:24:03;13.48;;;9.32;;
25107;SDS011;13090;53.422;7.670;2023-02-08T12:29:14;17.92;;;11.70;;
25107;SDS011;13090;53.422;7.670;2023-02-08T12:34:50;14.43;;;10.00;;
25107;SDS011;13090;53.422;7.670;2023-02-08T12:40:11;13.93;;;9.80;;
25107;SDS011;13090;53.422;7.670;2023-02-08T12:45:37;13.80;;;9.75;;
25107;SDS011;13090;53.422;7.670;2023-02-08T12:50:49;14.63;;;9.85;;
25107;SDS011;13090;53.422;7.670;2023-02-08T12:55:58;14.52;;;9.70;;
25107;SDS011;13090;53.422;7.670;2023-02-08T13:01:06;11.90;;;8.20;;
25107;SDS011;13090;53.422;7.670;2023-02-08T13:06:15;11.18;;;7.57;;
25107;SDS011;13090;53.422;7.670;2023-02-08T13:11:25;12.23;;;8.35;;
25107;SDS011;13090;53.422;7.670;2023-02-08T13:16:34;10.80;;;7.57;;
25107;SDS011;13090;53.422;7.670;2023-02-08T13:21:44;13.95;;;8.85;;
25107;SDS011;13090;53.422;7.670;2023-02-08T13:26:49;11.85;;;7.05;;
25107;SDS011;13090;53.422;7.670;2023-02-08T13:31:52;9.80;;;7.25;;
25107;SDS011;13090;53.422;7.670;2023-02-08T13:36:59;8.95;;;6.65;;
25107;SDS011;13090;53.422;7.670;2023-02-08T13:42:18;9.80;;;7.82;;
25107;SDS011;13090;53.422;7.670;2023-02-08T13:47:24;11.95;;;6.53;;
25107;SDS011;13090;53.422;7.670;2023-02-08T13:52:46;9.52;;;6.47;;
25107;SDS011;13090;53.422;7.670;2023-02-08T13:57:53;12.48;;;8.88;;
25107;SDS011;13090;53.422;7.670;2023-02-08T14:02:58;12.02;;;8.15;;
25107;SDS011;13090;53.422;7.670;2023-02-08T14:08:02;13.05;;;9.63;;
25107;SDS011;13090;53.422;7.670;2023-02-08T14:13:15;11.85;;;7.70;;
25107;SDS011;13090;53.422;7.670;2023-02-08T14:18:26;9.05;;;6.85;;
25107;SDS011;13090;53.422;7.670;2023-02-08T14:23:29;10.48;;;6.50;;
25107;SDS011;13090;53.422;7.670;2023-02-08T14:28:35;9.77;;;6.93;;
25107;SDS011;13090;53.422;7.670;2023-02-08T14:33:40;9.45;;;6.55;;
25107;SDS011;13090;53.422;7.670;2023-02-08T14:38:52;10.00;;;6.72;;
25107;SDS011;13090;53.422;7.670;2023-02-08T14:49:57;10.23;;;7.07;;
25107;SDS011;13090;53.422;7.670;2023-02-08T14:55:06;8.80;;;6.35;;
25107;SDS011;13090;53.422;7.670;2023-02-08T15:00:17;10.15;;;6.20;;
25107;SDS011;13090;53.422;7.670;2023-02-08T15:05:25;9.27;;;6.33;;
25107;SDS011;13090;53.422;7.670;2023-02-08T15:10:28;8.93;;;5.95;;
25107;SDS011;13090;53.422;7.670;2023-02-08T15:15:33;8.60;;;5.65;;
25107;SDS011;13090;53.422;7.670;2023-02-08T15:20:39;7.03;;;5.10;;
25107;SDS011;13090;53.422;7.670;2023-02-08T15:25:42;7.55;;;5.25;;
25107;SDS011;13090;53.422;7.670;2023-02-08T15:30:45;8.48;;;5.53;;
25107;SDS011;13090;53.422;7.670;2023-02-08T15:35:58;7.82;;;4.97;;
25107;SDS011;13090;53.422;7.670;2023-02-08T15:41:06;49.17;;;26.67;;
25107;SDS011;13090;53.422;7.670;2023-02-08T15:46:15;13.43;;;7.68;;
25107;SDS011;13090;53.422;7.670;2023-02-08T15:51:22;17.27;;;9.45;;
25107;SDS011;13090;53.422;7.670;2023-02-08T15:56:25;11.98;;;8.30;;
25107;SDS011;13090;53.422;7.670;2023-02-08T16:01:44;46.33;;;29.77;;
25107;SDS011;13090;53.422;7.670;2023-02-08T16:06:50;13.63;;;9.75;;
25107;SDS011;13090;53.422;7.670;2023-02-08T16:11:54;13.45;;;7.72;;
25107;SDS011;13090;53.422;7.670;2023-02-08T16:16:59;12.23;;;7.80;;
25107;SDS011;13090;53.422;7.670;2023-02-08T16:22:22;63.13;;;27.55;;
25107;SDS011;13090;53.422;7.670;2023-02-08T16:27:26;10.13;;;6.15;;
25107;SDS011;13090;53.422;7.670;2023-02-08T16:32:31;9.25;;;5.93;;
25107;SDS011;13090;53.422;7.670;2023-02-08T16:37:37;9.80;;;5.70;;
25107;SDS011;13090;53.422;7.670;2023-02-08T16:42:39;16.52;;;9.48;;
25107;SDS011;13090;53.422;7.670;2023-02-08T16:47:42;21.70;;;12.40;;
25107;SDS011;13090;53.422;7.670;2023-02-08T16:52:48;8.48;;;5.38;;
25107;SDS011;13090;53.422;7.670;2023-02-08T16:57:54;9.60;;;5.57;;
25107;SDS011;13090;53.422;7.670;2023-02-08T17:02:58;12.85;;;5.70;;
25107;SDS011;13090;53.422;7.670;2023-02-08T17:08:02;10.00;;;6.07;;
25107;SDS011;13090;53.422;7.670;2023-02-08T17:13:05;17.63;;;8.18;;
25107;SDS011;13090;53.422;7.670;2023-02-08T17:18:21;14.10;;;8.37;;
25107;SDS011;13090;53.422;7.670;2023-02-08T17:23:25;10.05;;;6.68;;
25107;SDS011;13090;53.422;7.670;2023-02-08T17:28:27;12.20;;;7.32;;
25107;SDS011;13090;53.422;7.670;2023-02-08T17:33:29;12.60;;;7.18;;
25107;SDS011;13090;53.422;7.670;2023-02-08T17:38:33;15.20;;;7.75;;
25107;SDS011;13090;53.422;7.670;2023-02-08T17:43:35;15.98;;;8.07;;
25107;SDS011;13090;53.422;7.670;2023-02-08T17:48:38;14.73;;;7.00;;
25107;SDS011;13090;53.422;7.670;2023-02-08T17:53:41;15.93;;;8.55;;
25107;SDS011;13090;53.422;7.670;2023-02-08T17:58:44;11.82;;;6.78;;
25107;SDS011;13090;53.422;7.670;2023-02-08T18:03:53;10.48;;;6.32;;
25107;SDS011;13090;53.422;7.670;2023-02-08T18:08:57;13.00;;;7.50;;
25107;SDS011;13090;53.422;7.670;2023-02-08T18:13:59;13.80;;;7.03;;
25107;SDS011;13090;53.422;7.670;2023-02-08T18:19:01;12.82;;;7.43;;
25107;SDS011;13090;53.422;7.670;2023-02-08T18:24:05;16.63;;;9.77;;
25107;SDS011;13090;53.422;7.670;2023-02-08T18:29:07;21.50;;;11.60;;
25107;SDS011;13090;53.422;7.670;2023-02-08T18:34:10;12.15;;;6.80;;
25107;SDS011;13090;53.422;7.670;2023-02-08T18:39:14;17.20;;;8.15;;
25107;SDS011;13090;53.422;7.670;2023-02-08T18:44:16;19.80;;;10.10;;
25107;SDS011;13090;53.422;7.670;2023-02-08T18:49:19;16.33;;;9.40;;
25107;SDS011;13090;53.422;7.670;2023-02-08T18:54:22;17.25;;;9.75;;
25107;SDS011;13090;53.422;7.670;2023-02-08T18:59:25;16.20;;;8.82;;
25107;SDS011;13090;53.422;7.670;2023-02-08T19:04:27;14.57;;;8.45;;
25107;SDS011;13090;53.422;7.670;2023-02-08T19:09:32;14.02;;;7.82;;
25107;SDS011;13090;53.422;7.670;2023-02-08T19:14:35;15.77;;;9.05;;
25107;SDS011;13090;53.422;7.670;2023-02-08T19:19:37;19.73;;;9.82;;
25107;SDS011;13090;53.422;7.670;2023-02-08T19:24:40;16.20;;;9.15;;
25107;SDS011;13090;53.422;7.670;2023-02-08T19:29:42;29.20;;;14.25;;
25107;SDS011;13090;53.422;7.670;2023-02-08T19:34:45;25.40;;;14.07;;
25107;SDS011;13090;53.422;7.670;2023-02-08T19:39:48;19.70;;;10.70;;
25107;SDS011;13090;53.422;7.670;2023-02-08T19:44:51;15.52;;;9.52;;
25107;SDS011;13090;53.422;7.670;2023-02-08T19:49:53;14.75;;;8.13;;
25107;SDS011;13090;53.422;7.670;2023-02-08T19:54:58;14.73;;;8.75;;
25107;SDS011;13090;53.422;7.670;2023-02-08T20:00:01;15.52;;;8.70;;
25107;SDS011;13090;53.422;7.670;2023-02-08T20:05:08;27.20;;;12.88;;
25107;SDS011;13090;53.422;7.670;2023-02-08T20:10:12;19.60;;;10.88;;
25107;SDS011;13090;53.422;7.670;2023-02-08T20:15:14;12.55;;;7.72;;
25107;SDS011;13090;53.422;7.670;2023-02-08T20:20:16;23.20;;;12.15;;
25107;SDS011;13090;53.422;7.670;2023-02-08T20:25:20;17.25;;;10.10;;
25107;SDS011;13090;53.422;7.670;2023-02-08T20:30:23;31.65;;;16.08;;
25107;SDS011;13090;53.422;7.670;2023-02-08T20:35:25;34.90;;;18.67;;
25107;SDS011;13090;53.422;7.670;2023-02-08T20:40:29;13.57;;;8.38;;
25107;SDS011;13090;53.422;7.670;2023-02-08T20:45:31;13.18;;;7.55;;
25107;SDS011;13090;53.422;7.670;2023-02-08T20:50:33;13.98;;;7.95;;
25107;SDS011;13090;53.422;7.670;2023-02-08T20:55:40;11.98;;;7.57;;
25107;SDS011;13090;53.422;7.670;2023-02-08T21:00:42;15.18;;;8.27;;
25107;SDS011;13090;53.422;7.670;2023-02-08T21:05:46;15.98;;;7.85;;
25107;SDS011;13090;53.422;7.670;2023-02-08T21:10:50;16.10;;;8.45;;
25107;SDS011;13090;53.422;7.670;2023-02-08T21:15:52;14.95;;;7.45;;
25107;SDS011;13090;53.422;7.670;2023-02-08T21:20:54;16.30;;;8.38;;
25107;SDS011;13090;53.422;7.670;2023-02-08T21:25:58;14.35;;;8.18;;
25107;SDS011;13090;53.422;7.670;2023-02-08T21:31:01;19.65;;;10.10;;
25107;SDS011;13090;53.422;7.670;2023-02-08T21:36:06;22.17;;;10.38;;
25107;SDS011;13090;53.422;7.670;2023-02-08T21:41:11;17.63;;;9.00;;
25107;SDS011;13090;53.422;7.670;2023-02-08T21:46:15;19.58;;;10.13;;
25107;SDS011;13090;53.422;7.670;2023-02-08T21:51:18;22.95;;;10.75;;
25107;SDS011;13090;53.422;7.670;2023-02-08T21:56:23;23.15;;;11.70;;
25107;SDS011;13090;53.422;7.670;2023-02-08T22:01:25;22.42;;;10.05;;
25107;SDS011;13090;53.422;7.670;2023-02-08T22:06:27;24.33;;;11.60;;
25107;SDS011;13090;53.422;7.670;2023-02-08T22:11:31;24.02;;;11.65;;
25107;SDS011;13090;53.422;7.670;2023-02-08T22:16:33;20.00;;;10.40;;
25107;SDS011;13090;53.422;7.670;2023-02-08T22:21:35;19.40;;;10.10;;
25107;SDS011;13090;53.422;7.670;2023-02-08T22:26:39;15.77;;;9.23;;
25107;SDS011;13090;53.422;7.670;2023-02-08T22:31:41;20.08;;;10.15;;
25107;SDS011;13090;53.422;7.670;2023-02-08T22:36:43;17.45;;;9.15;;
25107;SDS011;13090;53.422;7.670;2023-02-08T22:41:47;17.50;;;9.50;;
25107;SDS011;13090;53.422;7.670;2023-02-08T22:46:49;17.67;;;10.35;;
25107;SDS011;13090;53.422;7.670;2023-02-08T22:51:52;17.52;;;9.25;;
25107;SDS011;13090;53.422;7.670;2023-02-08T22:56:55;16.85;;;9.63;;
25107;SDS011;13090;53.422;7.670;2023-02-08T23:01:57;18.40;;;9.55;;
25107;SDS011;13090;53.422;7.670;2023-02-08T23:07:00;16.77;;;9.25;;
25107;SDS011;13090;53.422;7.670;2023-02-08T23:12:04;18.63;;;9.15;;
25107;SDS011;13090;53.422;7.670;2023-02-08T23:17:06;16.13;;;8.80;;
25107;SDS011;13090;53.422;7.670;2023-02-08T23:22:08;19.63;;;8.88;;
25107;SDS011;13090;53.422;7.670;2023-02-08T23:27:12;18.23;;;9.30;;
25107;SDS011;13090;53.422;7.670;2023-02-08T23:32:14;15.68;;;8.07;;
25107;SDS011;13090;53.422;7.670;2023-02-08T23:37:16;13.23;;;7.88;;
25107;SDS011;13090;53.422;7.670;2023-02-08T23:42:20;15.52;;;8.30;;
25107;SDS011;13090;53.422;7.670;2023-02-08T23:47:22;16.33;;;8.65;;
25107;SDS011;13090;53.422;7.670;2023-02-08T23:52:25;17.23;;;8.93;;
25107;SDS011;13090;53.422;7.670;2023-02-08T23:57:31;15.60;;;8.50;;
